Time;durP1;ratioP1;P1;durP2;ratioP2;P2;SDS_P1;SDS_P2;PMS_P1;PMS_P2;Temp;Humidity;BMP_temperature;BMP_pressure;BME280_temperature;BME280_humidity;BME280_pressure;Samples;Min_cycle;Max_cycle;Signal;HPM_P1;HPM_P2
2023/06/26 00:00:59;;;;;;;0.10;0.10;;;;;;;20.25;100.00;100197.97;4959316;28;20220;-78
2023/06/26 00:03:40;;;;;;;0.20;0.20;;;;;;;20.32;100.00;100214.75;4958623;28;20728;-78
2023/06/26 00:06:15;;;;;;;0.63;0.60;;;;;;;20.24;100.00;100249.91;4942184;28;20250;-78
2023/06/26 00:08:43;;;;;;;0.10;0.10;;;;;;;20.14;100.00;100251.16;4946480;28;20226;-78
2023/06/26 00:11:10;;;;;;;0.52;0.35;;;;;;;19.72;100.00;100248.03;4942881;28;20234;-77
2023/06/26 00:13:36;;;;;;;0.10;0.10;;;;;;;19.97;100.00;100240.97;4947063;28;20229;-78
2023/06/26 00:16:04;;;;;;;0.47;0.40;;;;;;;19.80;100.00;100251.38;4957868;28;20237;-78
2023/06/26 00:18:31;;;;;;;0.30;0.30;;;;;;;19.66;100.00;100262.53;4947285;28;20245;-78
2023/06/26 00:20:57;;;;;;;0.15;0.15;;;;;;;19.63;100.00;100251.00;4941014;28;20241;-78
2023/06/26 00:23:24;;;;;;;0.60;0.60;;;;;;;19.51;100.00;100249.56;4945202;29;20245;-77
2023/06/26 00:25:51;;;;;;;0.10;0.10;;;;;;;19.45;100.00;100265.78;4939624;28;20235;-78
2023/06/26 00:28:17;;;;;;;0.35;0.32;;;;;;;19.44;100.00;100266.72;4940750;28;20319;-78
2023/06/26 00:30:44;;;;;;;0.10;0.10;;;;;;;19.30;100.00;100259.09;4936760;28;20230;-78
2023/06/26 00:33:11;;;;;;;0.35;0.35;;;;;;;19.26;100.00;100275.31;4936844;28;20297;-77
2023/06/26 00:35:37;;;;;;;0.10;0.10;;;;;;;19.21;100.00;100285.28;4946070;28;20237;-78
2023/06/26 00:38:04;;;;;;;0.80;0.63;;;;;;;19.12;100.00;100291.78;4941998;28;20234;-77
2023/06/26 00:40:31;;;;;;;0.10;0.10;;;;;;;19.12;100.00;100291.78;4944883;29;20240;-77
2023/06/26 00:42:57;;;;;;;0.10;0.10;;;;;;;19.07;100.00;100302.63;4942216;28;20260;-78
2023/06/26 00:45:24;;;;;;;0.10;0.10;;;;;;;18.94;100.00;100292.31;4935374;28;20233;-78
2023/06/26 00:48:11;;;;;;;0.20;0.20;;;;;;;19.03;100.00;100300.09;4931071;28;20226;-77
2023/06/26 00:50:38;;;;;;;0.98;0.85;;;;;;;18.95;100.00;100315.50;4934702;29;20321;-77
2023/06/26 00:53:05;;;;;;;0.22;0.22;;;;;;;18.88;100.00;100298.72;4942062;28;20229;-78
2023/06/26 00:55:32;;;;;;;0.63;0.55;;;;;;;18.57;100.00;100295.94;4939681;28;20238;-77
2023/06/26 00:57:59;;;;;;;0.22;0.22;;;;;;;18.64;100.00;100304.72;4940693;28;20229;-78
2023/06/26 01:00:25;;;;;;;0.10;0.10;;;;;;;18.68;100.00;100291.22;4940440;28;20229;-77
2023/06/26 01:02:52;;;;;;;0.10;0.10;;;;;;;18.65;100.00;100307.34;4943684;28;20222;-77
2023/06/26 01:05:20;;;;;;;0.20;0.20;;;;;;;18.33;100.00;100291.19;4937056;28;20242;-79
2023/06/26 01:07:48;;;;;;;0.10;0.10;;;;;;;18.48;100.00;100314.91;4946458;28;20234;-79
2023/06/26 01:10:18;;;;;;;0.10;0.10;;;;;;;18.50;100.00;100313.06;4944578;28;20245;-79
2023/06/26 01:12:44;;;;;;;1.50;1.23;;;;;;;18.47;100.00;100314.03;4942216;28;20236;-79
2023/06/26 01:15:11;;;;;;;1.65;1.00;;;;;;;18.47;100.00;100310.47;4959223;28;20230;-79
2023/06/26 01:17:39;;;;;;;0.10;0.10;;;;;;;18.47;100.00;100315.81;4924345;29;20234;-78
2023/06/26 01:20:06;;;;;;;0.20;0.20;;;;;;;18.51;100.00;100333.56;4939839;28;20317;-79
2023/06/26 01:22:52;;;;;;;0.55;0.55;;;;;;;18.37;100.00;100316.97;4949055;28;20268;-79
2023/06/26 01:25:38;;;;;;;0.13;0.13;;;;;;;18.20;100.00;100317.34;4943987;28;20242;-79
2023/06/26 01:28:06;;;;;;;0.17;0.17;;;;;;;18.23;100.00;100331.56;4948532;28;20248;-79
2023/06/26 01:30:37;;;;;;;0.10;0.10;;;;;;;18.26;100.00;100327.94;4950487;28;20233;-79
2023/06/26 01:33:04;;;;;;;0.45;0.45;;;;;;;18.21;100.00;100329.84;4940137;28;20226;-78
2023/06/26 01:35:31;;;;;;;0.10;0.10;;;;;;;18.31;100.00;100344.78;4950425;28;20229;-79
2023/06/26 01:38:17;;;;;;;0.73;0.73;;;;;;;18.08;100.00;100347.97;4928105;28;20225;-78
2023/06/26 01:40:44;;;;;;;0.20;0.20;;;;;;;18.20;100.00;100378.91;4947513;28;20245;-79
2023/06/26 01:43:15;;;;;;;0.32;0.32;;;;;;;18.13;100.00;100371.94;4944705;28;20681;-79
2023/06/26 01:45:43;;;;;;;0.32;0.32;;;;;;;18.10;100.00;100377.38;4940652;28;20714;-79
2023/06/26 01:48:11;;;;;;;0.32;0.28;;;;;;;17.87;100.00;100364.50;4938528;28;20328;-79
2023/06/26 01:50:38;;;;;;;0.17;0.17;;;;;;;18.04;100.00;100391.75;4944650;28;20242;-79
2023/06/26 01:53:25;;;;;;;0.20;0.20;;;;;;;18.10;100.00;100394.31;4940848;28;20226;-78
2023/06/26 01:56:01;;;;;;;0.65;0.65;;;;;;;18.07;100.00;100382.78;4944144;28;20221;-79
2023/06/26 01:58:28;;;;;;;0.30;0.30;;;;;;;18.26;100.00;100392.19;4942626;28;20592;-79
2023/06/26 02:00:55;;;;;;;0.30;0.30;;;;;;;18.27;100.00;100385.94;4947417;28;20236;-79
2023/06/26 02:03:24;;;;;;;0.10;0.10;;;;;;;18.32;100.00;100383.13;4941284;28;20230;-78
2023/06/26 02:05:51;;;;;;;0.20;0.20;;;;;;;18.23;100.00;100371.72;4945947;28;20248;-79
2023/06/26 02:08:18;;;;;;;0.45;0.45;;;;;;;18.20;100.00;100374.47;4942532;28;20249;-78
2023/06/26 02:10:44;;;;;;;0.32;0.32;;;;;;;18.11;100.00;100371.09;4945971;28;20237;-79
2023/06/26 02:13:11;;;;;;;0.80;0.75;;;;;;;18.03;100.00;100367.72;4933918;28;20238;-79
2023/06/26 02:15:39;;;;;;;0.10;0.10;;;;;;;18.02;100.00;100379.34;4936639;28;20575;-79
2023/06/26 02:18:06;;;;;;;0.20;0.20;;;;;;;18.11;100.00;100389.84;4938194;28;20237;-79
2023/06/26 02:20:33;;;;;;;0.28;0.28;;;;;;;18.11;100.00;100390.72;4940291;28;20233;-79
2023/06/26 02:23:00;;;;;;;0.28;0.28;;;;;;;18.05;100.00;100377.47;4942207;28;20245;-79
2023/06/26 02:25:26;;;;;;;0.40;0.40;;;;;;;18.13;100.00;100390.69;4948602;28;20866;-80
2023/06/26 02:27:53;;;;;;;0.20;0.20;;;;;;;18.09;100.00;100389.88;4962962;28;20237;-79
2023/06/26 02:30:20;;;;;;;0.20;0.20;;;;;;;18.11;100.00;100390.72;4944531;28;20229;-79
2023/06/26 02:32:47;;;;;;;0.45;0.45;;;;;;;18.11;100.00;100397.84;4943397;28;20225;-78
2023/06/26 02:35:14;;;;;;;0.63;0.60;;;;;;;18.08;100.00;100392.56;4908510;29;20316;-79
2023/06/26 02:37:40;;;;;;;0.50;0.50;;;;;;;17.99;100.00;100388.31;4938421;28;20286;-78
2023/06/26 02:40:09;;;;;;;0.52;0.52;;;;;;;17.89;100.00;100378.72;4945002;28;20237;-79
2023/06/26 02:42:35;;;;;;;0.20;0.20;;;;;;;17.78;100.00;100386.09;4943509;28;20226;-79
2023/06/26 02:45:02;;;;;;;2.17;1.15;;;;;;;17.82;100.00;100407.41;4940709;28;20691;-79
2023/06/26 02:47:29;;;;;;;1.05;0.80;;;;;;;17.75;100.00;100416.47;4948099;28;20654;-79
2023/06/26 02:49:55;;;;;;;0.88;0.88;;;;;;;17.82;100.00;100415.44;4946007;28;20230;-79
2023/06/26 02:52:22;;;;;;;0.30;0.30;;;;;;;17.56;100.00;100410.56;4942738;28;20234;-81
2023/06/26 02:54:49;;;;;;;0.38;0.38;;;;;;;17.66;100.00;100432.69;4947050;28;20634;-82
2023/06/26 02:57:16;;;;;;;0.40;0.40;;;;;;;17.61;100.00;100447.91;4941172;28;20234;-81
2023/06/26 02:59:43;;;;;;;0.50;0.50;;;;;;;17.48;100.00;100449.06;4947352;28;20292;-78
2023/06/26 03:02:10;;;;;;;0.50;0.50;;;;;;;17.60;100.00;100467.56;4936431;28;20670;-78
2023/06/26 03:04:37;;;;;;;0.82;0.60;;;;;;;17.50;100.00;100460.63;4936967;28;20240;-78
2023/06/26 03:07:04;;;;;;;1.00;1.00;;;;;;;17.39;100.00;100459.94;4936887;28;20238;-79
2023/06/26 03:09:31;;;;;;;0.22;0.22;;;;;;;17.38;100.00;100471.53;4947493;28;20253;-79
2023/06/26 03:11:57;;;;;;;0.22;0.22;;;;;;;17.42;100.00;100473.25;4943978;28;20225;-78
2023/06/26 03:14:24;;;;;;;0.30;0.30;;;;;;;17.52;100.00;100472.16;4946168;28;20237;-79
2023/06/26 03:16:52;;;;;;;0.38;0.38;;;;;;;17.58;100.00;100475.59;4945069;28;20245;-78
2023/06/26 03:19:19;;;;;;;1.02;1.02;;;;;;;17.32;100.00;100455.63;4926764;28;20233;-79
2023/06/26 03:21:46;;;;;;;0.40;0.40;;;;;;;17.38;100.00;100458.19;4946478;28;20222;-78
2023/06/26 03:24:13;;;;;;;0.77;0.77;;;;;;;17.43;100.00;100478.56;4938726;28;20705;-79
2023/06/26 03:26:39;;;;;;;0.93;0.93;;;;;;;17.23;100.00;100462.88;4946013;28;20230;-78
2023/06/26 03:29:06;;;;;;;0.30;0.30;;;;;;;17.23;100.00;100465.56;4927215;28;20223;-78
2023/06/26 03:31:32;;;;;;;0.68;0.68;;;;;;;17.28;100.00;100461.00;4946376;28;20248;-79
2023/06/26 03:33:59;;;;;;;1.02;0.98;;;;;;;17.17;100.00;100476.34;4939862;28;20225;-78
2023/06/26 03:36:26;;;;;;;0.40;0.40;;;;;;;17.18;100.00;100485.25;4937201;28;20234;-78
2023/06/26 03:38:56;;;;;;;0.30;0.30;;;;;;;17.20;100.00;100488.78;4939260;28;20254;-79
2023/06/26 03:41:23;;;;;;;1.38;0.82;;;;;;;17.07;100.00;100484.56;4940523;28;20324;-82
2023/06/26 03:43:50;;;;;;;0.28;0.28;;;;;;;16.98;100.00;100490.06;4947219;28;20246;-84
2023/06/26 03:46:17;;;;;;;1.25;0.68;;;;;;;17.07;100.00;100501.47;4940516;28;20249;-84
2023/06/26 03:48:44;;;;;;;0.30;0.30;;;;;;;17.03;100.00;100502.44;4941429;28;20257;-84
2023/06/26 03:51:12;;;;;;;0.77;0.63;;;;;;;17.19;100.00;100505.72;4944176;28;20233;-84
2023/06/26 03:53:38;;;;;;;0.30;0.30;;;;;;;17.20;100.00;100499.47;4939300;28;20226;-85
2023/06/26 03:56:05;;;;;;;8.05;3.20;;;;;;;17.28;100.00;100513.59;4962422;28;20235;-85
2023/06/26 03:58:32;;;;;;;0.50;0.50;;;;;;;17.17;100.00;100518.22;4955384;28;20233;-84
2023/06/26 04:00:59;;;;;;;2.45;2.05;;;;;;;17.08;100.00;100527.28;4940934;28;20234;-84
2023/06/26 04:03:26;;;;;;;0.70;0.70;;;;;;;17.10;100.00;100538.81;4941903;28;20244;-84
2023/06/26 04:05:53;;;;;;;0.65;0.65;;;;;;;17.12;100.00;100541.47;4942266;28;20234;-84
2023/06/26 04:08:20;;;;;;;0.80;0.80;;;;;;;17.18;100.00;100544.94;4943864;28;20237;-85
2023/06/26 04:10:47;;;;;;;0.50;0.50;;;;;;;17.00;100.00;100534.53;4939428;28;20313;-84
2023/06/26 04:13:14;;;;;;;9.13;3.40;;;;;;;17.13;100.00;100548.59;4932012;28;20321;-83
2023/06/26 04:15:41;;;;;;;0.50;0.50;;;;;;;17.16;100.00;100557.44;4940198;28;20257;-85
2023/06/26 04:18:08;;;;;;;12.07;4.55;;;;;;;17.14;100.00;100556.56;4938164;28;20618;-83
2023/06/26 04:20:39;;;;;;;0.65;0.65;;;;;;;17.15;100.00;100554.78;4946478;28;20225;-85
2023/06/26 04:23:06;;;;;;;8.55;3.10;;;;;;;17.19;100.00;100562.72;4943132;28;20321;-84
2023/06/26 04:25:33;;;;;;;0.40;0.40;;;;;;;17.35;100.00;100576.72;4948020;28;20245;-85
2023/06/26 04:27:59;;;;;;;2.17;0.93;;;;;;;17.17;100.00;100561.00;4943209;28;20272;-83
2023/06/26 04:30:26;;;;;;;0.80;0.80;;;;;;;17.19;100.00;100567.19;4948498;28;20244;-83
2023/06/26 04:32:53;;;;;;;0.55;0.55;;;;;;;17.32;100.00;100582.13;4939211;28;20262;-85
2023/06/26 04:35:21;;;;;;;0.73;0.73;;;;;;;17.29;100.00;100579.50;4945089;28;20808;-85
2023/06/26 04:37:47;;;;;;;0.70;0.70;;;;;;;17.37;100.00;100596.31;4946346;28;20229;-85
2023/06/26 04:40:14;;;;;;;10.05;3.63;;;;;;;17.38;100.00;100597.19;4932156;28;20238;-83
2023/06/26 04:42:41;;;;;;;0.50;0.50;;;;;;;17.56;100.00;100591.53;4937638;28;20222;-83
2023/06/26 04:45:08;;;;;;;10.73;3.78;;;;;;;17.67;100.00;100594.06;4938024;28;20235;-84
2023/06/26 04:47:34;;;;;;;0.65;0.65;;;;;;;17.69;100.00;100611.84;4954535;28;20226;-84
2023/06/26 04:50:01;;;;;;;6.72;2.78;;;;;;;17.74;100.00;100615.31;4939599;28;20232;-83
2023/06/26 04:52:28;;;;;;;0.60;0.60;;;;;;;17.85;100.00;100605.31;4934350;28;20573;-83
2023/06/26 04:54:55;;;;;;;0.65;0.65;;;;;;;18.00;100.00;100589.88;4942384;28;20230;-84
2023/06/26 04:57:22;;;;;;;0.93;0.68;;;;;;;18.14;100.00;100569.97;4954580;28;20240;-84
2023/06/26 04:59:48;;;;;;;0.50;0.50;;;;;;;18.19;100.00;100572.56;4943319;28;20239;-83
2023/06/26 05:02:15;;;;;;;5.95;2.47;;;;;;;18.38;100.00;100584.69;4938784;28;20233;-83
2023/06/26 05:04:42;;;;;;;0.50;0.50;;;;;;;18.46;100.00;100585.41;4945143;28;20280;-84
2023/06/26 05:07:09;;;;;;;5.22;2.65;;;;;;;18.52;100.00;100584.41;4932037;28;20776;-84
2023/06/26 05:09:36;;;;;;;0.63;0.63;;;;;;;18.49;100.00;100589.81;4940173;28;20226;-83
2023/06/26 05:12:03;;;;;;;8.55;2.95;;;;;;;18.52;100.00;100579.03;4933104;28;20222;-84
2023/06/26 05:14:29;;;;;;;0.50;0.50;;;;;;;18.64;100.00;100596.69;4931825;28;20234;-85
2023/06/26 05:16:56;;;;;;;0.45;0.45;;;;;;;18.67;100.00;100612.69;4934620;28;20227;-83
2023/06/26 05:19:23;;;;;;;0.82;0.80;;;;;;;18.74;100.00;100606.28;4936239;28;20237;-84
2023/06/26 05:21:50;;;;;;;0.70;0.70;;;;;;;18.92;100.00;100597.84;4943526;28;20229;-84
2023/06/26 05:24:19;;;;;;;0.70;0.70;;;;;;;18.98;100.00;100573.56;4938839;28;20230;-84
2023/06/26 05:26:49;;;;;;;0.70;0.70;;;;;;;19.10;100.00;100556.31;4941871;28;20276;-81
2023/06/26 05:29:16;;;;;;;12.60;4.22;;;;;;;19.18;100.00;100552.53;4939609;28;20249;-82
2023/06/26 05:31:44;;;;;;;0.50;0.50;;;;;;;19.17;100.00;100548.09;4946599;28;20262;-82
2023/06/26 05:34:12;;;;;;;5.25;2.25;;;;;;;19.29;100.00;100548.72;4939039;28;20234;-82
2023/06/26 05:36:39;;;;;;;0.63;0.63;;;;;;;19.45;100.00;100516.09;4942192;28;20232;-82
2023/06/26 05:39:06;;;;;;;11.52;4.40;;;;;;;19.43;100.00;100506.34;4933790;28;20229;-77
2023/06/26 05:41:33;;;;;;;1.30;1.02;;;;;;;19.77;100.00;100538.56;4939636;28;20226;-76
2023/06/26 05:44:00;;;;;;;0.93;0.90;;;;;;;19.93;100.00;100513.06;4937841;28;20659;-77
2023/06/26 05:46:28;;;;;;;0.60;0.60;;;;;;;20.09;100.00;100494.72;4943916;28;20241;-77
2023/06/26 05:48:54;;;;;;;0.70;0.70;;;;;;;20.21;100.00;100480.06;4946568;28;20249;-77
2023/06/26 05:51:21;;;;;;;0.43;0.43;;;;;;;20.31;100.00;100460.06;4938097;28;20232;-76
2023/06/26 05:53:49;;;;;;;1.80;1.00;;;;;;;20.50;100.00;100461.28;4941541;28;20237;-77
2023/06/26 05:56:16;;;;;;;1.58;1.02;;;;;;;20.46;100.00;100448.88;4930385;28;20226;-77
2023/06/26 05:58:42;;;;;;;1.00;1.00;;;;;;;20.56;100.00;100422.59;4938815;28;20933;-77
2023/06/26 06:01:09;;;;;;;1.10;0.93;;;;;;;20.76;100.00;100412.97;4937567;28;20304;-77
2023/06/26 06:03:36;;;;;;;0.40;0.40;;;;;;;20.78;100.00;100427.22;4934978;28;20249;-77
2023/06/26 06:06:03;;;;;;;1.35;1.10;;;;;;;20.76;100.00;100426.41;4933928;28;20324;-77
2023/06/26 06:08:30;;;;;;;0.55;0.55;;;;;;;20.99;100.00;100412.22;4944788;28;20237;-77
2023/06/26 06:10:57;;;;;;;0.50;0.50;;;;;;;21.10;100.00;100393.03;4942380;28;20229;-76
2023/06/26 06:13:23;;;;;;;2.40;1.83;;;;;;;21.35;100.00;100393.94;4957941;28;20222;-77
2023/06/26 06:15:50;;;;;;;0.45;0.45;;;;;;;21.53;100.00;100392.41;4945203;28;20242;-77
2023/06/26 06:18:17;;;;;;;0.63;0.60;;;;;;;21.81;100.00;100373.41;4949147;28;20253;-77
2023/06/26 06:20:43;;;;;;;0.30;0.30;;;;;;;22.16;100.00;100369.41;4964066;28;20225;-77
2023/06/26 06:23:10;;;;;;;1.10;0.82;;;;;;;22.03;100.00;100319.63;4941009;28;20248;-77
2023/06/26 06:25:37;;;;;;;0.38;0.38;;;;;;;22.07;100.00;100280.88;4945117;28;20236;-77
2023/06/26 06:28:05;;;;;;;1.17;0.73;;;;;;;22.13;100.00;100251.03;4940326;28;20233;-77
2023/06/26 06:30:31;;;;;;;0.30;0.30;;;;;;;22.56;100.00;100279.72;4945118;28;20238;-77
2023/06/26 06:33:10;;;;;;;1.33;1.05;;;;;;;22.68;100.00;100286.41;4938821;28;20244;-77
2023/06/26 06:35:37;;;;;;;0.30;0.30;;;;;;;22.76;100.00;100221.38;4944477;28;20237;-77
2023/06/26 06:38:04;;;;;;;1.10;0.80;;;;;;;22.93;100.00;100213.44;4940370;28;20236;-77
2023/06/26 06:40:30;;;;;;;0.40;0.40;;;;;;;23.12;100.00;100181.97;4945249;28;20250;-77
2023/06/26 06:42:57;;;;;;;0.40;0.40;;;;;;;23.16;100.00;100177.31;4938899;28;20233;-80
2023/06/26 06:45:24;;;;;;;0.47;0.47;;;;;;;23.52;100.00;100202.59;4941933;28;20241;-77
2023/06/26 06:47:51;;;;;;;0.30;0.30;;;;;;;23.72;100.00;100171.09;4943963;28;20240;-77
2023/06/26 06:50:17;;;;;;;0.68;0.68;;;;;;;23.90;100.00;100160.25;4939343;28;20249;-76
2023/06/26 06:52:45;;;;;;;0.30;0.30;;;;;;;23.81;100.00;100073.41;4943994;28;20297;-78
2023/06/26 06:55:11;;;;;;;1.10;0.88;;;;;;;24.10;100.00;100107.91;4939925;28;20245;-77
2023/06/26 06:57:39;;;;;;;0.68;0.68;;;;;;;24.09;100.00;100071.03;4943083;28;20240;-77
2023/06/26 07:00:11;;;;;;;1.17;0.80;;;;;;;24.12;100.00;100033.06;4939707;28;20666;-77
2023/06/26 07:02:38;;;;;;;0.63;0.63;;;;;;;24.58;100.00;100082.84;4943895;28;20248;-77
2023/06/26 07:05:06;;;;;;;0.75;0.63;;;;;;;24.57;100.00;100024.31;4936343;28;20279;-76
2023/06/26 07:07:34;;;;;;;0.30;0.30;;;;;;;24.89;100.00;100029.78;4937536;28;20260;-77
2023/06/26 07:10:06;;;;;;;0.57;0.52;;;;;;;25.19;100.00;100048.84;4939535;28;20237;-76
2023/06/26 07:12:33;;;;;;;0.35;0.35;;;;;;;25.38;100.00;100010.78;4924994;29;20244;-77
2023/06/26 07:15:00;;;;;;;0.80;0.50;;;;;;;25.79;100.00;100024.59;4937160;28;20225;-76
2023/06/26 07:17:27;;;;;;;0.68;0.50;;;;;;;25.91;100.00;99999.47;4928621;29;20232;-77
2023/06/26 07:19:54;;;;;;;0.35;0.35;;;;;;;25.98;100.00;99937.63;4940626;28;20244;-76
2023/06/26 07:22:21;;;;;;;2.05;0.80;;;;;;;25.88;100.00;99869.63;4925625;28;20297;-76
2023/06/26 07:24:51;;;;;;;0.65;0.65;;;;;;;26.23;100.00;99894.50;4946982;28;20236;-76
2023/06/26 07:27:18;;;;;;;0.77;0.77;;;;;;;26.42;100.00;99903.22;4934781;28;20253;-76
2023/06/26 07:29:45;;;;;;;0.40;0.40;;;;;;;26.63;100.00;99856.69;4936209;28;20233;-77
2023/06/26 07:32:12;;;;;;;1.35;0.85;;;;;;;26.67;99.34;99794.00;4911026;28;20224;-77
2023/06/26 07:34:41;;;;;;;0.40;0.40;;;;;;;26.68;100.00;99801.16;4950243;28;20229;-77
2023/06/26 07:37:08;;;;;;;0.65;0.50;;;;;;;27.14;100.00;99810.75;4843608;28;20256;-75
2023/06/26 07:39:34;;;;;;;0.35;0.35;;;;;;;27.13;90.87;99682.31;4918120;29;20237;-77
2023/06/26 07:42:01;;;;;;;0.65;0.52;;;;;;;27.65;92.64;99731.06;4938669;28;20229;-76
2023/06/26 07:44:28;;;;;;;0.47;0.47;;;;;;;27.62;93.35;99696.00;4916096;28;20585;-77
2023/06/26 07:46:55;;;;;;;0.30;0.30;;;;;;;28.28;91.22;99711.00;4937332;28;20236;-76
2023/06/26 07:49:22;;;;;;;0.65;0.65;;;;;;;28.52;89.05;99681.06;4935570;28;20241;-76
2023/06/26 07:51:48;;;;;;;0.73;0.73;;;;;;;28.39;83.33;99582.38;4934166;28;20264;-76
2023/06/26 07:54:15;;;;;;;1.85;1.02;;;;;;;28.29;79.76;99497.94;4936450;28;20244;-76
2023/06/26 07:57:04;;;;;;;0.30;0.30;;;;;;;28.70;86.16;99589.03;4938160;28;20241;-76
2023/06/26 07:59:31;;;;;;;0.50;0.40;;;;;;;28.62;78.50;99460.91;4937635;29;20258;-76
2023/06/26 08:01:58;;;;;;;0.30;0.30;;;;;;;28.64;77.38;99426.28;4941281;28;20236;-77
2023/06/26 08:04:26;;;;;;;0.45;0.45;;;;;;;28.77;77.57;99432.44;4944211;28;20232;-76
2023/06/26 08:06:59;;;;;;;0.32;0.32;;;;;;;28.43;76.08;99358.16;4935909;28;20247;-75
2023/06/26 08:09:27;;;;;;;0.75;0.60;;;;;;;28.50;74.07;99340.34;4942630;28;20233;-75
2023/06/26 08:11:55;;;;;;;0.60;0.50;;;;;;;28.37;73.26;99287.97;4940702;28;20262;-75
2023/06/26 08:14:22;;;;;;;1.23;1.20;;;;;;;28.57;75.08;99341.56;4939977;28;20315;-75
2023/06/26 08:16:49;;;;;;;0.40;0.40;;;;;;;28.59;74.75;99311.50;4934547;28;20229;-76
2023/06/26 08:19:16;;;;;;;0.95;0.63;;;;;;;28.55;77.40;99326.34;4933546;28;20237;-75
2023/06/26 08:21:44;;;;;;;3.60;1.23;;;;;;;28.48;78.74;99330.56;4944571;28;20233;-75
2023/06/26 08:24:13;;;;;;;1.75;1.15;;;;;;;28.71;76.29;99310.53;4929089;28;20229;-76
2023/06/26 08:26:40;;;;;;;0.30;0.30;;;;;;;29.12;73.37;99312.50;4944236;28;20273;-76
2023/06/26 08:29:10;;;;;;;1.02;0.80;;;;;;;29.36;72.21;99305.94;4930370;28;20233;-76
2023/06/26 08:31:39;;;;;;;0.95;0.95;;;;;;;29.28;71.01;99258.44;4925251;29;20240;-76
2023/06/26 08:34:07;;;;;;;0.88;0.52;;;;;;;29.34;71.90;99264.34;4932023;28;20236;-75
2023/06/26 08:36:34;;;;;;;0.40;0.40;;;;;;;29.26;74.37;99273.19;4950256;28;20235;-76
2023/06/26 08:39:02;;;;;;;1.38;1.02;;;;;;;29.35;71.49;99253.31;4943891;28;20268;-75
2023/06/26 08:41:29;;;;;;;0.47;0.47;;;;;;;29.44;71.15;99241.66;4941459;28;20238;-75
2023/06/26 08:43:56;;;;;;;0.32;0.32;;;;;;;28.99;70.01;99173.88;4929094;28;20233;-74
2023/06/26 08:46:22;;;;;;;0.30;0.30;;;;;;;28.92;71.31;99183.56;4921780;28;20239;-76
2023/06/26 08:48:55;;;;;;;0.50;0.50;;;;;;;28.82;71.35;99168.13;4942069;28;20233;-75
2023/06/26 08:51:26;;;;;;;0.73;0.57;;;;;;;28.61;71.85;99147.22;4951796;28;20236;-75
2023/06/26 08:53:57;;;;;;;0.40;0.40;;;;;;;28.99;73.97;99214.69;4943148;28;20240;-76
2023/06/26 08:56:32;;;;;;;0.50;0.50;;;;;;;29.09;73.72;99239.25;4939808;28;20231;-76
2023/06/26 08:59:02;;;;;;;0.60;0.60;;;;;;;29.61;73.87;99295.53;4938367;28;20299;-76
2023/06/26 09:01:29;;;;;;;0.52;0.52;;;;;;;29.52;74.00;99282.72;4936269;29;20241;-76
2023/06/26 09:03:56;;;;;;;0.50;0.50;;;;;;;29.85;70.46;99278.00;4937217;28;20230;-77
2023/06/26 09:06:24;;;;;;;0.20;0.20;;;;;;;29.70;72.20;99260.28;4927072;28;20229;-76
2023/06/26 09:08:51;;;;;;;0.40;0.40;;;;;;;29.31;75.96;99260.91;4936795;28;20705;-76
2023/06/26 09:11:18;;;;;;;0.50;0.50;;;;;;;29.33;73.68;99238.13;4939340;28;20283;-76
2023/06/26 09:13:47;;;;;;;0.32;0.32;;;;;;;29.14;75.31;99228.84;4943656;28;20268;-76
2023/06/26 09:16:14;;;;;;;1.15;0.63;;;;;;;29.29;74.74;99240.25;4939245;28;20402;-76
2023/06/26 09:18:44;;;;;;;0.25;0.25;;;;;;;29.02;78.26;99248.09;4945257;28;20241;-77
2023/06/26 09:21:11;;;;;;;1.27;0.93;;;;;;;28.87;78.70;99256.56;4940435;28;20244;-78
2023/06/26 09:23:39;;;;;;;0.25;0.25;;;;;;;28.87;74.14;99204.00;4937846;29;20232;-76
2023/06/26 09:26:06;;;;;;;0.95;0.73;;;;;;;28.81;74.97;99204.50;4937691;28;20689;-76
2023/06/26 09:28:33;;;;;;;0.30;0.30;;;;;;;29.29;74.02;99240.25;4940824;28;20240;-77
2023/06/26 09:31:03;;;;;;;0.47;0.45;;;;;;;29.09;73.68;99220.19;4927695;28;20720;-76
2023/06/26 09:33:38;;;;;;;0.60;0.60;;;;;;;29.16;75.18;99237.72;4935465;28;20312;-76
2023/06/26 09:36:12;;;;;;;4.47;1.48;;;;;;;29.17;73.94;99225.84;4913156;28;20318;-76
2023/06/26 09:38:38;;;;;;;0.55;0.55;;;;;;;29.29;73.60;99232.94;4926051;29;20732;-76
2023/06/26 09:41:06;;;;;;;1.20;0.77;;;;;;;29.44;76.56;99274.34;4937793;28;20240;-77
2023/06/26 09:43:33;;;;;;;0.52;0.50;;;;;;;29.27;77.19;99270.34;4943015;28;20697;-76
2023/06/26 09:46:00;;;;;;;0.57;0.57;;;;;;;29.34;75.45;99258.91;4918397;28;20232;-76
2023/06/26 09:48:28;;;;;;;0.60;0.60;;;;;;;29.52;79.61;99326.28;4939763;28;20312;-76
2023/06/26 09:50:56;;;;;;;0.43;0.43;;;;;;;29.53;75.79;99275.41;4932310;28;20285;-76
2023/06/26 09:53:39;;;;;;;0.40;0.40;;;;;;;30.08;76.89;99342.31;4942632;28;20236;-76
2023/06/26 09:56:16;;;;;;;0.73;0.73;;;;;;;30.14;77.33;99362.72;4915425;28;20235;-76
2023/06/26 09:58:44;;;;;;;1.08;1.00;;;;;;;29.81;76.58;99303.81;4864661;28;20320;-77
2023/06/26 10:01:10;;;;;;;1.02;0.77;;;;;;;30.10;73.35;99296.69;4933118;28;20241;-80
2023/06/26 10:03:37;;;;;;;0.60;0.60;;;;;;;29.84;72.86;99260.78;4928724;28;20243;-77
2023/06/26 10:06:08;;;;;;;1.13;0.88;;;;;;;29.96;74.57;99286.13;4931729;28;20285;-76
2023/06/26 10:08:37;;;;;;;0.63;0.63;;;;;;;30.38;73.74;99326.91;4954840;28;20634;-76
2023/06/26 10:11:05;;;;;;;1.45;1.27;;;;;;;30.43;69.63;99289.16;4934744;28;20237;-77
2023/06/26 10:13:35;;;;;;;0.40;0.40;;;;;;;30.65;70.54;99288.97;4943819;28;20279;-77
2023/06/26 10:16:02;;;;;;;0.75;0.65;;;;;;;31.45;70.03;99351.56;4944286;28;20237;-77
2023/06/26 10:18:30;;;;;;;0.43;0.43;;;;;;;30.98;69.75;99284.09;4940281;28;20229;-76
2023/06/26 10:20:57;;;;;;;0.35;0.35;;;;;;;31.59;70.56;99347.50;4926277;28;20236;-78
2023/06/26 10:23:25;;;;;;;0.65;0.65;;;;;;;31.53;68.92;99326.22;4935777;28;20718;-78
2023/06/26 10:25:53;;;;;;;0.98;0.98;;;;;;;31.55;65.38;99272.28;4939116;29;20233;-77
2023/06/26 10:28:21;;;;;;;0.38;0.35;;;;;;;31.11;66.85;99221.84;4937653;28;20248;-77
2023/06/26 10:30:50;;;;;;;0.80;0.73;;;;;;;31.00;65.77;99202.91;4939326;28;20246;-77
2023/06/26 10:33:17;;;;;;;1.05;0.57;;;;;;;30.72;66.86;99172.75;4961901;28;20396;-77
2023/06/26 10:35:47;;;;;;;0.77;0.77;;;;;;;30.56;68.28;99186.97;4941083;28;20268;-77
2023/06/26 10:38:13;;;;;;;1.38;1.00;;;;;;;30.16;68.45;99145.28;4938844;28;20265;-76
2023/06/26 10:40:45;;;;;;;0.30;0.30;;;;;;;30.43;68.53;99196.44;4941901;29;20232;-76
2023/06/26 10:43:13;;;;;;;1.25;0.90;;;;;;;30.13;66.69;99146.44;4937547;28;20324;-76
2023/06/26 10:45:52;;;;;;;0.85;0.85;;;;;;;29.83;66.13;99102.88;4943669;28;20272;-76
2023/06/26 10:48:19;;;;;;;0.30;0.30;;;;;;;29.59;70.25;99152.28;4936802;28;20248;-76
2023/06/26 10:50:49;;;;;;;0.52;0.52;;;;;;;30.08;67.86;99181.44;4958545;28;20276;-77
2023/06/26 10:53:24;;;;;;;0.88;0.55;;;;;;;29.94;66.21;99132.75;4939525;28;20296;-77
2023/06/26 10:55:56;;;;;;;0.88;0.68;;;;;;;29.53;68.78;99112.81;4941859;28;20232;-77
2023/06/26 10:58:30;;;;;;;0.52;0.45;;;;;;;30.46;66.29;99191.53;4924026;28;20338;-76
2023/06/26 11:01:15;;;;;;;2.33;1.35;;;;;;;30.63;64.92;99175.50;4939609;28;20243;-76
2023/06/26 11:03:49;;;;;;;1.00;0.77;;;;;;;30.59;64.10;99160.41;4940536;28;20248;-76
2023/06/26 11:06:22;;;;;;;4.07;1.73;;;;;;;31.00;65.17;99203.75;4939438;28;20328;-76
2023/06/26 11:08:54;;;;;;;1.85;1.50;;;;;;;31.28;63.50;99199.31;4943354;28;20284;-79
2023/06/26 11:11:21;;;;;;;2.50;2.10;;;;;;;31.56;61.79;99194.78;4933923;28;20242;-78
2023/06/26 11:13:48;;;;;;;0.77;0.73;;;;;;;31.75;59.68;99180.19;4939836;28;20228;-77
2023/06/26 11:16:15;;;;;;;1.95;1.50;;;;;;;31.35;61.12;99129.41;4940044;28;20237;-79
2023/06/26 11:18:42;;;;;;;0.75;0.70;;;;;;;31.40;63.63;99183.59;4944614;28;20260;-78
2023/06/26 11:21:11;;;;;;;3.38;1.48;;;;;;;31.86;62.96;99239.28;4937867;28;20701;-78
2023/06/26 11:23:38;;;;;;;1.52;0.90;;;;;;;31.79;57.03;99127.78;4932869;28;20324;-78
2023/06/26 11:26:15;;;;;;;2.53;1.45;;;;;;;31.53;55.84;99058.44;4928066;28;20316;-76